sensor_id;sensor_type;location;lat;lon;timestamp;P1;durP1;ratioP1;P2;durP2;ratioP2
76107;SDS011;64834;52.516;10.528;2023-07-29T00:01:23;11.75;;;5.35;;
76107;SDS011;64834;52.516;10.528;2023-07-29T00:03:48;7.88;;;5.43;;
76107;SDS011;64834;52.516;10.528;2023-07-29T00:06:14;6.32;;;5.57;;
76107;SDS011;64834;52.516;10.528;2023-07-29T00:08:39;7.50;;;5.72;;
76107;SDS011;64834;52.516;10.528;2023-07-29T00:11:04;6.55;;;5.45;;
76107;SDS011;64834;52.516;10.528;2023-07-29T00:13:30;9.05;;;5.68;;
76107;SDS011;64834;52.516;10.528;2023-07-29T00:15:55;7.03;;;5.13;;
76107;SDS011;64834;52.516;10.528;2023-07-29T00:18:21;7.60;;;5.50;;
76107;SDS011;64834;52.516;10.528;2023-07-29T00:20:47;8.57;;;5.43;;
76107;SDS011;64834;52.516;10.528;2023-07-29T00:23:12;6.97;;;5.50;;
76107;SDS011;64834;52.516;10.528;2023-07-29T00:25:38;6.65;;;5.53;;
76107;SDS011;64834;52.516;10.528;2023-07-29T00:28:03;7.97;;;5.30;;
76107;SDS011;64834;52.516;10.528;2023-07-29T00:30:29;8.70;;;5.22;;
76107;SDS011;64834;52.516;10.528;2023-07-29T00:32:54;8.18;;;6.13;;
76107;SDS011;64834;52.516;10.528;2023-07-29T00:35:19;7.57;;;5.57;;
76107;SDS011;64834;52.516;10.528;2023-07-29T00:37:45;6.72;;;5.18;;
76107;SDS011;64834;52.516;10.528;2023-07-29T00:40:19;7.88;;;5.78;;
76107;SDS011;64834;52.516;10.528;2023-07-29T00:42:45;9.00;;;5.22;;
76107;SDS011;64834;52.516;10.528;2023-07-29T00:45:11;6.10;;;4.72;;
76107;SDS011;64834;52.516;10.528;2023-07-29T00:47:37;10.52;;;5.80;;
76107;SDS011;64834;52.516;10.528;2023-07-29T00:50:03;10.15;;;5.93;;
76107;SDS011;64834;52.516;10.528;2023-07-29T00:52:28;8.18;;;5.43;;
76107;SDS011;64834;52.516;10.528;2023-07-29T00:54:54;9.50;;;5.55;;
76107;SDS011;64834;52.516;10.528;2023-07-29T00:57:19;7.15;;;4.97;;
76107;SDS011;64834;52.516;10.528;2023-07-29T00:59:46;6.72;;;4.90;;
76107;SDS011;64834;52.516;10.528;2023-07-29T01:02:12;10.50;;;5.00;;
76107;SDS011;64834;52.516;10.528;2023-07-29T01:04:37;9.50;;;5.03;;
76107;SDS011;64834;52.516;10.528;2023-07-29T01:12:22;10.18;;;5.03;;
76107;SDS011;64834;52.516;10.528;2023-07-29T01:14:55;7.03;;;4.50;;
76107;SDS011;64834;52.516;10.528;2023-07-29T01:17:40;13.52;;;5.03;;
76107;SDS011;64834;52.516;10.528;2023-07-29T01:20:09;6.45;;;5.00;;
76107;SDS011;64834;52.516;10.528;2023-07-29T01:22:38;7.13;;;4.82;;
76107;SDS011;64834;52.516;10.528;2023-07-29T01:25:05;7.40;;;5.00;;
76107;SDS011;64834;52.516;10.528;2023-07-29T01:27:30;7.25;;;4.47;;
76107;SDS011;64834;52.516;10.528;2023-07-29T01:29:56;6.68;;;4.50;;
76107;SDS011;64834;52.516;10.528;2023-07-29T01:35:18;6.10;;;4.40;;
76107;SDS011;64834;52.516;10.528;2023-07-29T01:37:49;6.90;;;4.10;;
76107;SDS011;64834;52.516;10.528;2023-07-29T01:40:20;9.45;;;3.75;;
76107;SDS011;64834;52.516;10.528;2023-07-29T01:42:48;6.53;;;3.72;;
76107;SDS011;64834;52.516;10.528;2023-07-29T01:45:14;4.60;;;3.35;;
76107;SDS011;64834;52.516;10.528;2023-07-29T01:47:40;4.40;;;3.30;;
76107;SDS011;64834;52.516;10.528;2023-07-29T01:50:06;5.35;;;3.00;;
76107;SDS011;64834;52.516;10.528;2023-07-29T01:52:32;5.05;;;3.25;;
76107;SDS011;64834;52.516;10.528;2023-07-29T01:54:57;3.90;;;2.85;;
76107;SDS011;64834;52.516;10.528;2023-07-29T01:57:23;4.80;;;2.83;;
76107;SDS011;64834;52.516;10.528;2023-07-29T01:59:48;4.72;;;2.65;;
76107;SDS011;64834;52.516;10.528;2023-07-29T02:02:13;4.72;;;2.67;;
76107;SDS011;64834;52.516;10.528;2023-07-29T02:04:39;3.20;;;2.30;;
76107;SDS011;64834;52.516;10.528;2023-07-29T02:07:04;4.97;;;2.33;;
76107;SDS011;64834;52.516;10.528;2023-07-29T02:09:29;4.93;;;2.65;;
76107;SDS011;64834;52.516;10.528;2023-07-29T02:11:56;3.33;;;2.55;;
76107;SDS011;64834;52.516;10.528;2023-07-29T02:14:22;5.50;;;2.35;;
76107;SDS011;64834;52.516;10.528;2023-07-29T02:16:47;5.00;;;2.83;;
76107;SDS011;64834;52.516;10.528;2023-07-29T02:19:13;5.45;;;2.92;;
76107;SDS011;64834;52.516;10.528;2023-07-29T02:21:38;5.28;;;2.20;;
76107;SDS011;64834;52.516;10.528;2023-07-29T02:24:03;3.25;;;2.33;;
76107;SDS011;64834;52.516;10.528;2023-07-29T02:26:29;5.10;;;2.17;;
76107;SDS011;64834;52.516;10.528;2023-07-29T02:28:54;2.90;;;2.20;;
76107;SDS011;64834;52.516;10.528;2023-07-29T02:31:20;4.68;;;2.60;;
76107;SDS011;64834;52.516;10.528;2023-07-29T02:33:47;5.35;;;2.25;;
76107;SDS011;64834;52.516;10.528;2023-07-29T02:36:13;2.80;;;2.05;;
76107;SDS011;64834;52.516;10.528;2023-07-29T02:38:38;5.25;;;2.17;;
76107;SDS011;64834;52.516;10.528;2023-07-29T02:41:04;7.68;;;2.10;;
76107;SDS011;64834;52.516;10.528;2023-07-29T02:43:30;4.03;;;2.17;;
76107;SDS011;64834;52.516;10.528;2023-07-29T02:45:55;4.95;;;1.92;;
76107;SDS011;64834;52.516;10.528;2023-07-29T02:48:20;4.47;;;2.10;;
76107;SDS011;64834;52.516;10.528;2023-07-29T02:50:46;3.50;;;1.90;;
76107;SDS011;64834;52.516;10.528;2023-07-29T02:53:11;3.95;;;1.88;;
76107;SDS011;64834;52.516;10.528;2023-07-29T02:55:39;3.28;;;2.10;;
76107;SDS011;64834;52.516;10.528;2023-07-29T02:58:05;4.57;;;2.40;;
76107;SDS011;64834;52.516;10.528;2023-07-29T03:00:31;2.78;;;2.10;;
76107;SDS011;64834;52.516;10.528;2023-07-29T03:02:56;3.67;;;2.10;;
76107;SDS011;64834;52.516;10.528;2023-07-29T03:05:22;3.30;;;2.08;;
76107;SDS011;64834;52.516;10.528;2023-07-29T03:07:47;3.75;;;2.03;;
76107;SDS011;64834;52.516;10.528;2023-07-29T03:10:12;3.58;;;1.95;;
76107;SDS011;64834;52.516;10.528;2023-07-29T03:12:39;2.33;;;1.77;;
76107;SDS011;64834;52.516;10.528;2023-07-29T03:15:04;3.58;;;1.58;;
76107;SDS011;64834;52.516;10.528;2023-07-29T03:17:30;4.63;;;2.08;;
76107;SDS011;64834;52.516;10.528;2023-07-29T03:19:55;3.70;;;2.00;;
76107;SDS011;64834;52.516;10.528;2023-07-29T03:22:21;3.83;;;1.90;;
76107;SDS011;64834;52.516;10.528;2023-07-29T03:24:46;2.42;;;1.73;;
76107;SDS011;64834;52.516;10.528;2023-07-29T03:27:11;3.55;;;1.80;;
76107;SDS011;64834;52.516;10.528;2023-07-29T03:29:37;3.92;;;2.05;;
76107;SDS011;64834;52.516;10.528;2023-07-29T03:32:02;3.75;;;1.88;;
76107;SDS011;64834;52.516;10.528;2023-07-29T03:34:28;3.13;;;1.83;;
76107;SDS011;64834;52.516;10.528;2023-07-29T03:36:53;3.22;;;2.15;;
76107;SDS011;64834;52.516;10.528;2023-07-29T03:39:19;3.22;;;1.85;;
76107;SDS011;64834;52.516;10.528;2023-07-29T03:41:44;3.10;;;1.75;;
76107;SDS011;64834;52.516;10.528;2023-07-29T03:44:09;2.80;;;1.63;;
76107;SDS011;64834;52.516;10.528;2023-07-29T03:46:35;2.78;;;1.90;;
76107;SDS011;64834;52.516;10.528;2023-07-29T03:49:00;5.55;;;2.10;;
76107;SDS011;64834;52.516;10.528;2023-07-29T03:51:25;2.63;;;1.58;;
76107;SDS011;64834;52.516;10.528;2023-07-29T03:53:50;2.85;;;1.80;;
76107;SDS011;64834;52.516;10.528;2023-07-29T03:56:16;2.63;;;1.58;;
76107;SDS011;64834;52.516;10.528;2023-07-29T03:58:42;2.33;;;1.70;;
76107;SDS011;64834;52.516;10.528;2023-07-29T04:03:34;4.80;;;1.85;;
76107;SDS011;64834;52.516;10.528;2023-07-29T04:05:59;2.55;;;1.60;;
76107;SDS011;64834;52.516;10.528;2023-07-29T04:08:25;2.55;;;1.67;;
76107;SDS011;64834;52.516;10.528;2023-07-29T04:10:50;3.97;;;1.95;;
76107;SDS011;64834;52.516;10.528;2023-07-29T04:13:16;3.15;;;1.83;;
76107;SDS011;64834;52.516;10.528;2023-07-29T04:15:41;2.25;;;1.63;;
76107;SDS011;64834;52.516;10.528;2023-07-29T04:18:06;3.22;;;1.95;;
76107;SDS011;64834;52.516;10.528;2023-07-29T04:20:32;2.33;;;1.60;;
76107;SDS011;64834;52.516;10.528;2023-07-29T04:22:58;3.47;;;1.52;;
76107;SDS011;64834;52.516;10.528;2023-07-29T04:25:24;2.67;;;1.90;;
76107;SDS011;64834;52.516;10.528;2023-07-29T04:27:49;4.30;;;1.67;;
76107;SDS011;64834;52.516;10.528;2023-07-29T04:30:14;3.85;;;1.90;;
76107;SDS011;64834;52.516;10.528;2023-07-29T04:32:40;3.10;;;1.67;;
76107;SDS011;64834;52.516;10.528;2023-07-29T04:35:07;2.35;;;1.80;;
76107;SDS011;64834;52.516;10.528;2023-07-29T04:37:35;2.25;;;1.65;;
76107;SDS011;64834;52.516;10.528;2023-07-29T04:40:01;4.55;;;1.95;;
76107;SDS011;64834;52.516;10.528;2023-07-29T04:42:26;3.47;;;1.58;;
76107;SDS011;64834;52.516;10.528;2023-07-29T04:44:51;3.40;;;1.52;;
76107;SDS011;64834;52.516;10.528;2023-07-29T04:47:17;2.60;;;1.60;;
76107;SDS011;64834;52.516;10.528;2023-07-29T04:49:42;4.32;;;1.85;;
76107;SDS011;64834;52.516;10.528;2023-07-29T04:52:07;3.08;;;1.70;;
76107;SDS011;64834;52.516;10.528;2023-07-29T04:54:33;2.50;;;1.70;;
76107;SDS011;64834;52.516;10.528;2023-07-29T04:56:58;2.80;;;1.73;;
76107;SDS011;64834;52.516;10.528;2023-07-29T04:59:23;2.85;;;1.85;;
76107;SDS011;64834;52.516;10.528;2023-07-29T05:01:49;2.80;;;2.10;;
76107;SDS011;64834;52.516;10.528;2023-07-29T05:04:14;3.17;;;1.67;;
76107;SDS011;64834;52.516;10.528;2023-07-29T05:06:40;2.70;;;2.22;;
76107;SDS011;64834;52.516;10.528;2023-07-29T05:09:15;3.42;;;1.83;;
76107;SDS011;64834;52.516;10.528;2023-07-29T05:11:41;4.18;;;1.90;;
76107;SDS011;64834;52.516;10.528;2023-07-29T05:14:09;2.80;;;2.20;;
76107;SDS011;64834;52.516;10.528;2023-07-29T05:16:34;3.08;;;1.88;;
76107;SDS011;64834;52.516;10.528;2023-07-29T05:19:00;3.25;;;1.75;;
76107;SDS011;64834;52.516;10.528;2023-07-29T05:21:25;3.00;;;2.25;;
76107;SDS011;64834;52.516;10.528;2023-07-29T05:23:50;4.65;;;2.22;;
76107;SDS011;64834;52.516;10.528;2023-07-29T05:26:16;3.03;;;2.20;;
76107;SDS011;64834;52.516;10.528;2023-07-29T05:28:41;5.57;;;2.40;;
76107;SDS011;64834;52.516;10.528;2023-07-29T05:31:07;2.13;;;1.52;;
76107;SDS011;64834;52.516;10.528;2023-07-29T05:33:32;6.55;;;2.15;;
76107;SDS011;64834;52.516;10.528;2023-07-29T05:35:57;4.60;;;2.50;;
76107;SDS011;64834;52.516;10.528;2023-07-29T05:38:23;4.13;;;2.13;;
76107;SDS011;64834;52.516;10.528;2023-07-29T05:40:48;2.50;;;2.00;;
76107;SDS011;64834;52.516;10.528;2023-07-29T05:43:14;4.30;;;2.10;;
76107;SDS011;64834;52.516;10.528;2023-07-29T05:45:39;4.40;;;2.38;;
76107;SDS011;64834;52.516;10.528;2023-07-29T05:48:05;4.22;;;2.28;;
76107;SDS011;64834;52.516;10.528;2023-07-29T05:50:30;2.95;;;2.17;;
76107;SDS011;64834;52.516;10.528;2023-07-29T05:52:55;4.07;;;2.38;;
76107;SDS011;64834;52.516;10.528;2023-07-29T05:55:21;3.53;;;2.40;;
76107;SDS011;64834;52.516;10.528;2023-07-29T05:57:46;4.15;;;2.28;;
76107;SDS011;64834;52.516;10.528;2023-07-29T06:00:11;3.60;;;2.15;;
76107;SDS011;64834;52.516;10.528;2023-07-29T06:02:37;2.67;;;1.90;;
76107;SDS011;64834;52.516;10.528;2023-07-29T06:05:03;2.72;;;2.13;;
76107;SDS011;64834;52.516;10.528;2023-07-29T06:07:29;3.05;;;2.03;;
76107;SDS011;64834;52.516;10.528;2023-07-29T06:09:55;3.53;;;2.00;;
76107;SDS011;64834;52.516;10.528;2023-07-29T06:12:21;1.88;;;1.33;;
76107;SDS011;64834;52.516;10.528;2023-07-29T06:14:46;3.72;;;2.28;;
76107;SDS011;64834;52.516;10.528;2023-07-29T06:17:11;4.28;;;1.83;;
76107;SDS011;64834;52.516;10.528;2023-07-29T06:19:37;5.65;;;2.00;;
76107;SDS011;64834;52.516;10.528;2023-07-29T06:22:03;2.50;;;1.70;;
76107;SDS011;64834;52.516;10.528;2023-07-29T06:24:30;3.15;;;2.30;;
76107;SDS011;64834;52.516;10.528;2023-07-29T06:26:55;4.03;;;2.03;;
76107;SDS011;64834;52.516;10.528;2023-07-29T06:29:20;4.70;;;2.22;;
76107;SDS011;64834;52.516;10.528;2023-07-29T06:31:46;4.18;;;2.35;;
76107;SDS011;64834;52.516;10.528;2023-07-29T06:34:11;7.15;;;2.70;;
76107;SDS011;64834;52.516;10.528;2023-07-29T06:36:36;5.10;;;2.28;;
76107;SDS011;64834;52.516;10.528;2023-07-29T06:39:02;5.10;;;2.17;;
76107;SDS011;64834;52.516;10.528;2023-07-29T06:41:27;5.07;;;2.40;;
76107;SDS011;64834;52.516;10.528;2023-07-29T06:43:53;3.50;;;2.10;;
76107;SDS011;64834;52.516;10.528;2023-07-29T06:46:18;3.95;;;2.15;;
76107;SDS011;64834;52.516;10.528;2023-07-29T06:48:43;3.17;;;2.10;;
76107;SDS011;64834;52.516;10.528;2023-07-29T06:51:09;2.95;;;2.22;;
76107;SDS011;64834;52.516;10.528;2023-07-29T06:53:34;4.35;;;2.30;;
76107;SDS011;64834;52.516;10.528;2023-07-29T06:55:59;4.75;;;2.05;;
76107;SDS011;64834;52.516;10.528;2023-07-29T06:58:25;3.88;;;2.28;;
76107;SDS011;64834;52.516;10.528;2023-07-29T07:00:50;3.35;;;2.47;;
76107;SDS011;64834;52.516;10.528;2023-07-29T07:03:16;4.03;;;2.22;;
76107;SDS011;64834;52.516;10.528;2023-07-29T07:05:41;3.70;;;2.42;;
76107;SDS011;64834;52.516;10.528;2023-07-29T07:08:06;3.97;;;1.90;;
76107;SDS011;64834;52.516;10.528;2023-07-29T07:10:32;2.92;;;2.13;;
76107;SDS011;64834;52.516;10.528;2023-07-29T07:12:58;3.13;;;2.38;;
76107;SDS011;64834;52.516;10.528;2023-07-29T07:15:24;3.67;;;2.88;;
76107;SDS011;64834;52.516;10.528;2023-07-29T07:17:50;4.03;;;2.70;;
76107;SDS011;64834;52.516;10.528;2023-07-29T07:20:16;4.25;;;2.55;;
76107;SDS011;64834;52.516;10.528;2023-07-29T07:22:41;3.95;;;3.10;;
76107;SDS011;64834;52.516;10.528;2023-07-29T07:25:07;5.00;;;2.47;;
76107;SDS011;64834;52.516;10.528;2023-07-29T07:27:32;4.20;;;2.83;;
76107;SDS011;64834;52.516;10.528;2023-07-29T07:29:58;4.03;;;2.53;;
76107;SDS011;64834;52.516;10.528;2023-07-29T07:32:23;4.28;;;2.70;;
76107;SDS011;64834;52.516;10.528;2023-07-29T07:34:48;3.63;;;2.30;;
76107;SDS011;64834;52.516;10.528;2023-07-29T07:37:14;3.85;;;2.28;;
76107;SDS011;64834;52.516;10.528;2023-07-29T07:39:39;3.35;;;2.47;;
76107;SDS011;64834;52.516;10.528;2023-07-29T07:42:05;5.18;;;2.35;;
76107;SDS011;64834;52.516;10.528;2023-07-29T07:44:30;2.95;;;2.28;;
76107;SDS011;64834;52.516;10.528;2023-07-29T07:46:55;3.28;;;2.10;;
76107;SDS011;64834;52.516;10.528;2023-07-29T07:49:21;3.85;;;2.58;;
76107;SDS011;64834;52.516;10.528;2023-07-29T07:51:47;3.42;;;2.35;;
76107;SDS011;64834;52.516;10.528;2023-07-29T07:54:12;3.42;;;2.42;;
76107;SDS011;64834;52.516;10.528;2023-07-29T07:56:37;3.88;;;2.20;;
76107;SDS011;64834;52.516;10.528;2023-07-29T07:59:03;4.18;;;2.28;;
76107;SDS011;64834;52.516;10.528;2023-07-29T08:01:28;3.80;;;2.15;;
76107;SDS011;64834;52.516;10.528;2023-07-29T08:04:02;3.33;;;1.85;;
76107;SDS011;64834;52.516;10.528;2023-07-29T08:06:28;5.50;;;2.63;;
76107;SDS011;64834;52.516;10.528;2023-07-29T08:08:54;3.47;;;2.10;;
76107;SDS011;64834;52.516;10.528;2023-07-29T08:11:19;3.70;;;2.20;;
76107;SDS011;64834;52.516;10.528;2023-07-29T08:13:44;3.70;;;1.98;;
76107;SDS011;64834;52.516;10.528;2023-07-29T08:16:10;4.03;;;1.95;;
76107;SDS011;64834;52.516;10.528;2023-07-29T08:18:35;3.28;;;2.00;;
76107;SDS011;64834;52.516;10.528;2023-07-29T08:21:00;3.70;;;2.00;;
76107;SDS011;64834;52.516;10.528;2023-07-29T08:23:29;4.07;;;2.13;;
76107;SDS011;64834;52.516;10.528;2023-07-29T08:25:56;3.47;;;2.15;;
76107;SDS011;64834;52.516;10.528;2023-07-29T08:28:27;3.97;;;2.58;;
76107;SDS011;64834;52.516;10.528;2023-07-29T08:31:02;4.43;;;2.15;;
76107;SDS011;64834;52.516;10.528;2023-07-29T08:33:28;4.32;;;2.33;;
76107;SDS011;64834;52.516;10.528;2023-07-29T08:35:55;3.25;;;2.33;;
76107;SDS011;64834;52.516;10.528;2023-07-29T08:38:22;3.00;;;2.33;;
76107;SDS011;64834;52.516;10.528;2023-07-29T08:40:56;4.82;;;2.55;;
76107;SDS011;64834;52.516;10.528;2023-07-29T08:43:38;4.13;;;2.65;;
76107;SDS011;64834;52.516;10.528;2023-07-29T08:46:04;4.00;;;2.38;;
76107;SDS011;64834;52.516;10.528;2023-07-29T08:50:59;5.90;;;2.70;;
76107;SDS011;64834;52.516;10.528;2023-07-29T08:53:28;3.58;;;2.22;;
76107;SDS011;64834;52.516;10.528;2023-07-29T08:55:53;4.97;;;2.88;;
76107;SDS011;64834;52.516;10.528;2023-07-29T08:58:20;3.08;;;2.08;;
76107;SDS011;64834;52.516;10.528;2023-07-29T09:00:46;3.83;;;1.75;;
76107;SDS011;64834;52.516;10.528;2023-07-29T09:03:12;3.17;;;2.15;;
76107;SDS011;64834;52.516;10.528;2023-07-29T09:05:38;3.03;;;1.60;;
76107;SDS011;64834;52.516;10.528;2023-07-29T09:08:03;2.97;;;1.98;;
76107;SDS011;64834;52.516;10.528;2023-07-29T09:10:29;3.92;;;1.52;;
76107;SDS011;64834;52.516;10.528;2023-07-29T09:12:54;3.78;;;1.77;;
76107;SDS011;64834;52.516;10.528;2023-07-29T09:15:29;2.63;;;1.80;;
76107;SDS011;64834;52.516;10.528;2023-07-29T09:17:56;3.08;;;2.05;;
76107;SDS011;64834;52.516;10.528;2023-07-29T09:20:26;3.17;;;1.40;;
76107;SDS011;64834;52.516;10.528;2023-07-29T09:22:53;2.80;;;1.75;;
76107;SDS011;64834;52.516;10.528;2023-07-29T09:25:27;1.90;;;1.23;;
76107;SDS011;64834;52.516;10.528;2023-07-29T09:27:58;2.38;;;1.30;;
76107;SDS011;64834;52.516;10.528;2023-07-29T09:30:25;2.15;;;1.40;;
76107;SDS011;64834;52.516;10.528;2023-07-29T09:32:56;2.30;;;1.40;;
76107;SDS011;64834;52.516;10.528;2023-07-29T09:35:23;2.40;;;1.23;;
76107;SDS011;64834;52.516;10.528;2023-07-29T09:37:50;3.00;;;1.60;;
76107;SDS011;64834;52.516;10.528;2023-07-29T09:40:17;2.50;;;1.33;;
76107;SDS011;64834;52.516;10.528;2023-07-29T09:42:55;2.50;;;1.40;;
76107;SDS011;64834;52.516;10.528;2023-07-29T09:45:24;2.60;;;1.77;;
76107;SDS011;64834;52.516;10.528;2023-07-29T09:47:54;2.80;;;1.52;;
76107;SDS011;64834;52.516;10.528;2023-07-29T09:50:24;3.25;;;1.85;;
76107;SDS011;64834;52.516;10.528;2023-07-29T09:52:51;2.33;;;1.75;;
76107;SDS011;64834;52.516;10.528;2023-07-29T09:55:17;2.13;;;1.60;;
76107;SDS011;64834;52.516;10.528;2023-07-29T09:57:59;2.42;;;1.70;;
76107;SDS011;64834;52.516;10.528;2023-07-29T10:00:29;2.45;;;1.77;;
76107;SDS011;64834;52.516;10.528;2023-07-29T10:02:57;2.40;;;1.88;;
76107;SDS011;64834;52.516;10.528;2023-07-29T10:07:50;2.30;;;1.75;;
76107;SDS011;64834;52.516;10.528;2023-07-29T10:10:16;4.60;;;2.17;;
76107;SDS011;64834;52.516;10.528;2023-07-29T10:12:42;2.97;;;1.73;;
76107;SDS011;64834;52.516;10.528;2023-07-29T10:15:08;3.55;;;2.00;;
76107;SDS011;64834;52.516;10.528;2023-07-29T10:17:35;2.97;;;2.10;;
76107;SDS011;64834;52.516;10.528;2023-07-29T10:20:03;2.30;;;1.80;;
76107;SDS011;64834;52.516;10.528;2023-07-29T10:22:32;3.28;;;2.70;;
76107;SDS011;64834;52.516;10.528;2023-07-29T10:25:04;3.38;;;2.00;;
76107;SDS011;64834;52.516;10.528;2023-07-29T10:27:42;3.22;;;2.05;;
76107;SDS011;64834;52.516;10.528;2023-07-29T10:30:29;3.47;;;2.72;;
76107;SDS011;64834;52.516;10.528;2023-07-29T10:32:55;3.90;;;2.17;;
76107;SDS011;64834;52.516;10.528;2023-07-29T10:35:23;6.43;;;3.03;;
76107;SDS011;64834;52.516;10.528;2023-07-29T10:37:50;3.30;;;2.80;;
76107;SDS011;64834;52.516;10.528;2023-07-29T10:40:17;5.07;;;3.13;;
76107;SDS011;64834;52.516;10.528;2023-07-29T10:43:02;4.22;;;3.28;;
76107;SDS011;64834;52.516;10.528;2023-07-29T10:45:37;5.13;;;3.92;;
76107;SDS011;64834;52.516;10.528;2023-07-29T10:50:35;4.32;;;2.92;;
76107;SDS011;64834;52.516;10.528;2023-07-29T10:53:00;5.72;;;2.95;;
76107;SDS011;64834;52.516;10.528;2023-07-29T10:55:27;3.80;;;2.60;;
76107;SDS011;64834;52.516;10.528;2023-07-29T11:00:36;3.08;;;2.78;;
76107;SDS011;64834;52.516;10.528;2023-07-29T11:03:02;3.42;;;2.65;;
76107;SDS011;64834;52.516;10.528;2023-07-29T11:05:49;3.15;;;2.40;;
76107;SDS011;64834;52.516;10.528;2023-07-29T11:11:06;3.05;;;2.42;;
76107;SDS011;64834;52.516;10.528;2023-07-29T11:13:36;3.40;;;2.60;;
76107;SDS011;64834;52.516;10.528;2023-07-29T11:16:03;6.20;;;2.45;;
76107;SDS011;64834;52.516;10.528;2023-07-29T11:18:32;3.50;;;3.00;;
76107;SDS011;64834;52.516;10.528;2023-07-29T11:20:59;2.53;;;2.20;;
76107;SDS011;64834;52.516;10.528;2023-07-29T11:23:35;5.03;;;3.03;;
76107;SDS011;64834;52.516;10.528;2023-07-29T11:26:02;4.30;;;3.05;;
76107;SDS011;64834;52.516;10.528;2023-07-29T11:28:28;5.85;;;3.30;;
76107;SDS011;64834;52.516;10.528;2023-07-29T11:30:55;4.30;;;3.22;;
76107;SDS011;64834;52.516;10.528;2023-07-29T11:33:21;4.78;;;3.38;;
76107;SDS011;64834;52.516;10.528;2023-07-29T11:35:49;5.28;;;3.97;;
76107;SDS011;64834;52.516;10.528;2023-07-29T11:38:15;4.55;;;3.60;;
76107;SDS011;64834;52.516;10.528;2023-07-29T11:43:07;5.55;;;4.10;;
76107;SDS011;64834;52.516;10.528;2023-07-29T11:45:32;4.32;;;3.58;;
76107;SDS011;64834;52.516;10.528;2023-07-29T11:47:58;4.97;;;3.60;;
76107;SDS011;64834;52.516;10.528;2023-07-29T11:50:24;4.65;;;4.22;;
76107;SDS011;64834;52.516;10.528;2023-07-29T11:52:49;5.35;;;3.80;;
76107;SDS011;64834;52.516;10.528;2023-07-29T11:55:15;4.30;;;3.60;;
76107;SDS011;64834;52.516;10.528;2023-07-29T11:57:41;5.38;;;3.75;;
76107;SDS011;64834;52.516;10.528;2023-07-29T12:00:07;4.82;;;4.00;;
76107;SDS011;64834;52.516;10.528;2023-07-29T12:02:36;5.07;;;3.75;;
76107;SDS011;64834;52.516;10.528;2023-07-29T12:05:04;4.78;;;4.07;;
76107;SDS011;64834;52.516;10.528;2023-07-29T12:07:30;5.63;;;4.00;;
76107;SDS011;64834;52.516;10.528;2023-07-29T12:09:56;5.80;;;4.15;;
76107;SDS011;64834;52.516;10.528;2023-07-29T12:12:22;6.30;;;4.07;;
76107;SDS011;64834;52.516;10.528;2023-07-29T12:14:48;6.93;;;3.92;;
76107;SDS011;64834;52.516;10.528;2023-07-29T12:17:14;4.72;;;3.28;;
76107;SDS011;64834;52.516;10.528;2023-07-29T12:19:39;4.53;;;3.58;;
76107;SDS011;64834;52.516;10.528;2023-07-29T12:22:06;4.22;;;3.28;;
76107;SDS011;64834;52.516;10.528;2023-07-29T12:24:33;7.57;;;4.35;;
76107;SDS011;64834;52.516;10.528;2023-07-29T12:27:00;4.35;;;3.78;;
76107;SDS011;64834;52.516;10.528;2023-07-29T12:29:25;4.82;;;4.00;;
76107;SDS011;64834;52.516;10.528;2023-07-29T12:32:01;4.63;;;3.08;;
76107;SDS011;64834;52.516;10.528;2023-07-29T12:34:28;5.32;;;2.75;;
76107;SDS011;64834;52.516;10.528;2023-07-29T12:36:54;5.07;;;3.08;;
76107;SDS011;64834;52.516;10.528;2023-07-29T12:41:48;4.72;;;2.90;;
76107;SDS011;64834;52.516;10.528;2023-07-29T12:44:14;5.05;;;3.03;;
76107;SDS011;64834;52.516;10.528;2023-07-29T12:46:39;4.38;;;2.80;;
76107;SDS011;64834;52.516;10.528;2023-07-29T12:49:05;3.28;;;2.47;;
76107;SDS011;64834;52.516;10.528;2023-07-29T12:51:30;6.03;;;2.60;;
76107;SDS011;64834;52.516;10.528;2023-07-29T12:53:56;3.97;;;2.28;;
76107;SDS011;64834;52.516;10.528;2023-07-29T12:56:21;5.65;;;2.95;;
76107;SDS011;64834;52.516;10.528;2023-07-29T12:58:47;5.03;;;2.85;;
76107;SDS011;64834;52.516;10.528;2023-07-29T13:01:12;5.82;;;2.83;;
76107;SDS011;64834;52.516;10.528;2023-07-29T13:03:42;3.58;;;2.90;;
76107;SDS011;64834;52.516;10.528;2023-07-29T13:06:07;4.15;;;3.60;;
76107;SDS011;64834;52.516;10.528;2023-07-29T13:08:33;3.28;;;2.95;;
76107;SDS011;64834;52.516;10.528;2023-07-29T13:10:58;2.90;;;2.40;;
76107;SDS011;64834;52.516;10.528;2023-07-29T13:13:23;2.08;;;1.38;;
76107;SDS011;64834;52.516;10.528;2023-07-29T13:15:49;1.70;;;1.02;;
76107;SDS011;64834;52.516;10.528;2023-07-29T13:18:14;1.50;;;0.90;;
76107;SDS011;64834;52.516;10.528;2023-07-29T13:20:39;1.75;;;0.75;;
76107;SDS011;64834;52.516;10.528;2023-07-29T13:23:05;1.20;;;0.73;;
76107;SDS011;64834;52.516;10.528;2023-07-29T13:25:30;1.00;;;0.40;;
76107;SDS011;64834;52.516;10.528;2023-07-29T13:27:55;1.70;;;0.50;;
76107;SDS011;64834;52.516;10.528;2023-07-29T13:30:21;1.48;;;0.57;;
76107;SDS011;64834;52.516;10.528;2023-07-29T13:32:46;1.42;;;0.40;;
76107;SDS011;64834;52.516;10.528;2023-07-29T13:35:12;1.30;;;0.40;;
76107;SDS011;64834;52.516;10.528;2023-07-29T13:37:37;1.10;;;0.50;;
76107;SDS011;64834;52.516;10.528;2023-07-29T13:40:02;1.10;;;0.40;;
76107;SDS011;64834;52.516;10.528;2023-07-29T13:42:28;1.65;;;0.50;;
76107;SDS011;64834;52.516;10.528;2023-07-29T13:44:53;0.63;;;0.28;;
76107;SDS011;64834;52.516;10.528;2023-07-29T13:47:19;1.52;;;0.60;;
76107;SDS011;64834;52.516;10.528;2023-07-29T13:49:44;0.77;;;0.40;;
76107;SDS011;64834;52.516;10.528;2023-07-29T13:52:09;1.60;;;0.70;;
76107;SDS011;64834;52.516;10.528;2023-07-29T13:54:34;0.93;;;0.43;;
76107;SDS011;64834;52.516;10.528;2023-07-29T13:57:00;1.45;;;0.68;;
76107;SDS011;64834;52.516;10.528;2023-07-29T13:59:25;2.88;;;0.55;;
76107;SDS011;64834;52.516;10.528;2023-07-29T14:01:50;1.25;;;0.35;;
76107;SDS011;64834;52.516;10.528;2023-07-29T14:06:51;0.80;;;0.43;;
76107;SDS011;64834;52.516;10.528;2023-07-29T14:09:16;0.93;;;0.38;;
76107;SDS011;64834;52.516;10.528;2023-07-29T14:11:41;1.73;;;0.50;;
76107;SDS011;64834;52.516;10.528;2023-07-29T14:14:07;1.42;;;0.40;;
76107;SDS011;64834;52.516;10.528;2023-07-29T14:16:32;1.52;;;0.50;;
76107;SDS011;64834;52.516;10.528;2023-07-29T14:18:58;1.40;;;0.32;;
76107;SDS011;64834;52.516;10.528;2023-07-29T14:21:23;0.80;;;0.30;;
76107;SDS011;64834;52.516;10.528;2023-07-29T14:23:48;1.33;;;0.50;;
76107;SDS011;64834;52.516;10.528;2023-07-29T14:26:14;3.78;;;0.50;;
76107;SDS011;64834;52.516;10.528;2023-07-29T14:28:39;0.82;;;0.50;;
76107;SDS011;64834;52.516;10.528;2023-07-29T14:31:04;1.25;;;0.57;;
76107;SDS011;64834;52.516;10.528;2023-07-29T14:33:30;1.48;;;0.50;;
76107;SDS011;64834;52.516;10.528;2023-07-29T14:35:55;1.50;;;0.50;;
76107;SDS011;64834;52.516;10.528;2023-07-29T14:38:20;1.10;;;0.90;;
76107;SDS011;64834;52.516;10.528;2023-07-29T14:40:47;1.48;;;0.40;;
76107;SDS011;64834;52.516;10.528;2023-07-29T14:43:13;1.23;;;0.40;;
76107;SDS011;64834;52.516;10.528;2023-07-29T14:45:38;1.40;;;0.50;;
76107;SDS011;64834;52.516;10.528;2023-07-29T14:48:03;0.85;;;0.45;;
76107;SDS011;64834;52.516;10.528;2023-07-29T14:50:29;2.20;;;0.70;;
76107;SDS011;64834;52.516;10.528;2023-07-29T14:52:55;1.17;;;0.68;;
76107;SDS011;64834;52.516;10.528;2023-07-29T14:55:20;1.25;;;0.50;;
76107;SDS011;64834;52.516;10.528;2023-07-29T14:57:45;1.73;;;0.50;;
76107;SDS011;64834;52.516;10.528;2023-07-29T15:00:11;1.38;;;0.50;;